• Join FlightAware (Why Join?)
  • Login
  • US Flag 
10:16AM EST


 

Airport Tracker/Info


-or-


 

Live Flight TrackerFlight Track Log ✈ USC105 ✈ 18-Apr-2013 ✈ KBKL - KYIP

Flight Track Log - Related Links

Times and Time Zones

All times are in EDT time to prevent confusion due to time zone crossing. See the USC105 flight status page for this flight to view local times or setup timezone preferences in your user account.

Time Position Orientation Groundspeed Altitude Reporting Facility
EDT Latitude Longitude Course Direction KTS MPH feet Rate Location/Type
11:18PM 41.5292 -81.7119 328° Northwest 114 131 1,400  Level Cleveland Center
11:19PM 41.5497 -81.7375 317° Northwest 100 115 2,300 840 Climbing Cleveland Center
11:20PM 41.5744 -81.7656 320° Northwest 116 133 3,100 720 Climbing Cleveland Center
11:21PM 41.5864 -81.8103 290° West 127 146 3,800 780 Climbing Cleveland Center
11:22PM 41.6006 -81.8522 294° West 124 143 4,700 840 Climbing Cleveland Center
11:23PM 41.6128 -81.8939 291° West 117 135 5,600 900 Climbing Cleveland Center
11:24PM 41.6269 -81.9333 296° West 116 133 6,600 780 Climbing Cleveland Center
11:25PM 41.6408 -81.9836 290° West 127 146 7,300 600 Climbing Cleveland Center
11:26PM 41.6547 -82.0311 291° West 141 162 7,900 300 Climbing Cleveland Center
11:27PM 41.6728 -82.0869 293° West 175 201 8,000  Climbing Cleveland Center
11:28PM 41.6928 -82.1458 294° West 175 201 8,000  Level Cleveland Center
11:29PM 41.7086 -82.2047 290° West 178 205 8,000 -60 Level Cleveland Center
11:30PM 41.7286 -82.2664 294° West 183 211 7,900 -60 Descending Cleveland Center
11:31PM 41.7486 -82.3281 294° West 183 211 7,900  Level Cleveland Center
11:32PM 41.7664 -82.3900 291° West 182 209 7,900  Level Cleveland Center
11:33PM 41.7825 -82.4294 299° West 183 211 7,900  Level Cleveland Center
11:34PM 41.8022 -82.4939 292° West 185 213 7,900  Level Cleveland Center
11:35PM 41.8222 -82.5531 294° West 184 212 7,900  Level Cleveland Center
11:36PM 41.8397 -82.6150 291° West 183 211 7,900  Level Cleveland Center
11:37PM 41.8786 -82.6664 315° West 229 264 7,900 -60 Level Cleveland Center
11:38PM 41.9086 -82.7261 304° West 186 214 7,800  Descending Cleveland Center
11:39PM 41.9389 -82.7800 307° West 201 231 7,900  Climbing Cleveland Center
11:40PM 41.9650 -82.8311 305° West 185 213 7,900 -60 Level Cleveland Center
11:41PM 41.9992 -82.8911 307° West 185 213 7,800 -300 Descending Cleveland Center
11:42PM 42.0272 -82.9453 305° West 190 219 7,300 -660 Descending Cleveland Center
11:43PM 42.0614 -83.0081 306° West 205 236 6,500 -720 Descending Cleveland Center
11:44PM 42.0997 -83.0739 308° West 203 234 5,900 -600 Descending Cleveland Center
11:45PM 42.1278 -83.1281 305° West 197 227 5,400 -720 Descending Cleveland Center
11:46PM 42.1575 -83.1881 304° West 195 224 4,600 -720 Descending Cleveland Center
11:47PM 42.1814 -83.2367 304° West 184 212 4,100 -660 Descending Cleveland Center
11:48PM 42.1922 -83.3100 281° West 163 188 3,300 -600 Descending Cleveland Center
11:49PM 42.2075 -83.3753 288° West 162 186 2,900 -480 Descending Cleveland Center
11:50PM 42.2311 -83.4325 299° West 164 189 2,300 -540 Descending Cleveland Center
11:51PM 42.2486 -83.4808 296° West 135 155 1,800 -540 Descending Cleveland Center
11:53PM 42.2393 -83.5310 256° West  Level Estimated
12:00AM 42.2393 -83.5310 43° Northeast  Level Estimated
12:01AM 42.2393 -83.5310 43° Northeast  Level Estimated